Terminal Aerodrome Forecast
Issued by NWS Wilmington, OH

Current Version | Previous Version | Text Only | Print | Product List | Glossary Off
Versions: 1 2 3 4 5 6 7 8 9 10 11 12 13 14 15 16 17 18 19 20 21 22 23 24 25 26 27 28 29 30 31

000
FTUS41 KILN 181732
TAFCVG
TAF
KCVG 181732Z 1818/1924 27008KT P6SM OVC015
     FM190000 VRB03KT P6SM BKN015
     FM190600 VRB03KT P6SM BKN025
     FM190900 11007KT P6SM SCT025 BKN250
     FM191800 11008KT P6SM BKN040
     FM192200 12009KT P6SM VCSH OVC040=

USA.gov is the U.S. government's official web portal to all federal, state and local government web resources and services.